createdAt,value
2019-05-09T00:00:17.386Z,13.6
2019-05-09T00:02:24.702Z,13.6
2019-05-09T00:04:29.092Z,13.6
2019-05-09T00:06:36.094Z,13.8
2019-05-09T00:07:38.281Z,13.9
2019-05-09T00:09:45.202Z,14
2019-05-09T00:11:49.925Z,14.2
2019-05-09T00:13:56.613Z,13.8
2019-05-09T00:14:59.069Z,13.4
2019-05-09T00:17:05.145Z,13.7
2019-05-09T00:19:09.561Z,13.8
2019-05-09T00:20:14.869Z,13.6
2019-05-09T00:22:19.955Z,13.7
2019-05-09T00:24:27.129Z,13.6
2019-05-09T00:25:29.309Z,13.7
2019-05-09T00:27:34.357Z,13.3
2019-05-09T00:29:39.472Z,13.2
2019-05-09T00:30:43.885Z,13.3
2019-05-09T00:32:48.683Z,13.5
2019-05-09T00:34:54.400Z,13.3
2019-05-09T00:35:56.594Z,13.1
2019-05-09T00:38:01.257Z,13.4
2019-05-09T00:40:07.873Z,13.3
2019-05-09T00:41:10.064Z,13.3
2019-05-09T00:42:15.073Z,13.4
2019-05-09T00:43:17.251Z,13.5
2019-05-09T00:45:24.086Z,13.6
2019-05-09T00:47:29.130Z,13.5
2019-05-09T00:48:34.156Z,13.6
2019-05-09T00:50:38.550Z,13.4
2019-05-09T00:52:44.184Z,13.4
2019-05-09T00:53:46.346Z,13.3
2019-05-09T00:55:52.913Z,13.7
2019-05-09T00:57:57.455Z,13.4
2019-05-09T01:00:04.590Z,13.3
2019-05-09T01:01:06.759Z,13.5
2019-05-09T01:03:11.103Z,13.6
2019-05-09T01:05:17.304Z,13.6
2019-05-09T01:06:19.516Z,13.4
2019-05-09T01:07:23.835Z,13.6
2019-05-09T01:08:26.043Z,13.8
2019-05-09T01:10:30.430Z,13.8
2019-05-09T01:12:36.718Z,13.6
2019-05-09T01:13:39.164Z,13.4
2019-05-09T01:14:43.627Z,13.7
2019-05-09T01:15:45.787Z,13.8
2019-05-09T01:17:50.459Z,13.5
2019-05-09T01:19:57.631Z,13.5
2019-05-09T01:20:59.800Z,13.9
2019-05-09T01:23:07.032Z,13.9
2019-05-09T01:25:13.790Z,13.6
2019-05-09T01:27:18.460Z,13.7
2019-05-09T01:28:20.649Z,14
2019-05-09T01:30:26.777Z,13.5
2019-05-09T01:32:31.185Z,13.9
2019-05-09T01:33:34.428Z,14.1
2019-05-09T01:35:39.123Z,14
2019-05-09T01:37:45.812Z,13.4
2019-05-09T01:38:47.982Z,13.5
2019-05-09T01:39:50.180Z,13.5
2019-05-09T01:40:54.403Z,13.5
2019-05-09T01:42:59.529Z,13.7
2019-05-09T01:45:06.540Z,13.6
2019-05-09T01:46:09.104Z,13.5
2019-05-09T01:48:15.151Z,13.8
2019-05-09T01:50:20.253Z,14
2019-05-09T01:52:26.792Z,14
2019-05-09T01:53:28.954Z,14.1
2019-05-09T01:55:35.676Z,14.1
2019-05-09T01:57:40.343Z,13.9
2019-05-09T01:58:44.259Z,13.8
2019-05-09T01:59:46.827Z,13.9
2019-05-09T02:00:48.979Z,13.9
2019-05-09T02:02:55.494Z,13.7
2019-05-09T02:04:59.915Z,13.8
2019-05-09T02:06:05.340Z,13.9
2019-05-09T02:08:09.767Z,13.7
2019-05-09T02:10:16.658Z,13.6
2019-05-09T02:12:21.336Z,13.5
2019-05-09T02:13:24.684Z,13.7
2019-05-09T02:15:29.105Z,13.5
2019-05-09T02:17:35.274Z,13.4
2019-05-09T02:18:37.446Z,13.6
2019-05-09T02:20:44.244Z,13.6
2019-05-09T02:22:49.679Z,13.5
2019-05-09T02:23:54.520Z,13.3
2019-05-09T02:25:58.929Z,13.5
2019-05-09T02:28:04.629Z,13.5
2019-05-09T02:30:10.043Z,13.1
2019-05-09T02:31:17.514Z,13.2
2019-05-09T02:33:25.118Z,13.6
2019-05-09T02:36:03.000Z,13.6
2019-05-09T02:37:05.193Z,13.6
2019-05-09T02:38:10.721Z,13.4
2019-05-09T02:40:19.919Z,13.5
2019-05-09T02:41:22.976Z,13.5
2019-05-09T02:42:28.704Z,13.5
2019-05-09T02:43:31.207Z,13.4
2019-05-09T02:45:39.520Z,13.3
2019-05-09T02:47:44.304Z,13.1
2019-05-09T02:48:50.886Z,13.4
2019-05-09T02:50:59.709Z,13.4
2019-05-09T02:53:08.585Z,13.5
2019-05-09T02:55:14.380Z,13.4
2019-05-09T02:56:20.408Z,13.3
2019-05-09T02:58:28.395Z,13.3
2019-05-09T03:00:33.691Z,13
2019-05-09T03:01:39.549Z,13.2
2019-05-09T03:03:44.904Z,13.3
2019-05-09T03:05:52.673Z,13.2
2019-05-09T03:07:59.588Z,13.3
2019-05-09T03:09:03.131Z,13.1
2019-05-09T03:11:11.042Z,13.1
2019-05-09T03:12:40.569Z,13
2019-05-09T03:13:42.701Z,13.2
2019-05-09T03:15:51.439Z,13.3
2019-05-09T03:18:00.227Z,13.1
2019-05-09T03:19:02.471Z,13.2
2019-05-09T03:21:11.175Z,13
2019-05-09T03:23:19.770Z,12.8
2019-05-09T03:24:21.996Z,13.1
2019-05-09T03:25:24.208Z,13
2019-05-09T03:26:30.042Z,13
2019-05-09T03:28:34.760Z,12.8
2019-05-09T03:30:43.955Z,13.1
2019-05-09T03:31:50.861Z,13
2019-05-09T03:34:00.887Z,13
2019-05-09T03:36:05.274Z,13
2019-05-09T03:38:12.153Z,13
2019-05-09T03:39:14.586Z,12.9
2019-05-09T03:41:21.339Z,13
2019-05-09T03:42:44.976Z,13
2019-05-09T03:43:49.584Z,12.9
2019-05-09T03:45:54.722Z,12.8
2019-05-09T03:46:59.221Z,12.7
2019-05-09T03:49:03.758Z,12.9
2019-05-09T03:50:08.448Z,12.9
2019-05-09T03:51:11.211Z,12.9
2019-05-09T03:52:13.655Z,12.5
2019-05-09T03:54:19.524Z,12.8
2019-05-09T03:56:24.255Z,12.8
2019-05-09T03:57:28.696Z,12.7
2019-05-09T03:59:33.644Z,12.6
2019-05-09T04:01:41.345Z,12.8
2019-05-09T04:02:43.846Z,12.8
2019-05-09T04:03:48.790Z,12.8
2019-05-09T04:04:50.943Z,12.9
2019-05-09T04:06:03.926Z,12.8
2019-05-09T04:07:09.007Z,12.6
2019-05-09T04:09:13.408Z,12.8
2019-05-09T04:11:20.519Z,12.8
2019-05-09T04:12:22.971Z,12.7
2019-05-09T04:14:29.374Z,12.8
2019-05-09T04:16:33.776Z,12.7
2019-05-09T04:17:37.734Z,12.8
2019-05-09T04:18:41.864Z,12.9
2019-05-09T04:19:44.035Z,12.8
2019-05-09T04:21:51.209Z,12.9
2019-05-09T04:23:55.588Z,12.8
2019-05-09T04:24:58.802Z,12.8
2019-05-09T04:27:03.189Z,12.6
2019-05-09T04:29:09.890Z,12.8
2019-05-09T04:31:14.301Z,12.7
2019-05-09T04:32:19.229Z,12.8
2019-05-09T04:34:23.643Z,13
2019-05-09T04:36:30.446Z,13.1
2019-05-09T04:37:32.637Z,12.9
2019-05-09T04:38:34.790Z,13
2019-05-09T04:39:41.689Z,13
2019-05-09T04:40:49.748Z,13
2019-05-09T04:42:08.900Z,12.9
2019-05-09T04:43:40.052Z,13.1
2019-05-09T04:44:42.190Z,13.1
2019-05-09T04:46:49.387Z,13
2019-05-09T04:49:03.324Z,13.1
2019-05-09T04:50:08.251Z,13.1
2019-05-09T04:52:13.238Z,13.2
2019-05-09T04:54:19.156Z,13.3
2019-05-09T04:56:23.556Z,13.3
2019-05-09T04:57:28.060Z,13.5
2019-05-09T04:59:32.465Z,13.2
2019-05-09T05:01:40.252Z,13.3
2019-05-09T05:02:42.430Z,13.3
2019-05-09T05:03:44.612Z,13.3
2019-05-09T05:04:49.271Z,13.4
2019-05-09T05:06:53.682Z,13.3
2019-05-09T05:09:00.689Z,13.5
2019-05-09T05:10:03.627Z,13.5
2019-05-09T05:12:10.697Z,13.5
2019-05-09T05:13:30.605Z,13.4
2019-05-09T05:14:32.732Z,13.5
2019-05-09T05:16:41.010Z,13.3
2019-05-09T05:17:43.221Z,13.5
2019-05-09T05:18:47.577Z,13.6
2019-05-09T05:19:49.931Z,13.4
2019-05-09T05:21:54.322Z,13.5
2019-05-09T05:24:01.703Z,13.4
2019-05-09T05:25:04.859Z,13.3
2019-05-09T05:27:12.086Z,13.5
2019-05-09T05:29:18.801Z,13.3
2019-05-09T05:30:20.989Z,13.2
2019-05-09T05:31:23.434Z,13.4
2019-05-09T05:32:27.960Z,13.3
2019-05-09T05:34:33.028Z,13.5
2019-05-09T05:35:37.825Z,13.6
2019-05-09T05:37:42.543Z,13.7
2019-05-09T05:39:48.860Z,13.6
2019-05-09T05:41:53.976Z,13.6
2019-05-09T05:42:59.449Z,13.8
2019-05-09T05:45:03.813Z,13.3
2019-05-09T05:47:10.652Z,13.1
2019-05-09T05:48:13.109Z,13.4
2019-05-09T05:50:19.110Z,13.5
2019-05-09T05:52:23.546Z,13.8
2019-05-09T05:54:30.667Z,13.6
2019-05-09T05:55:32.826Z,13.8
2019-05-09T05:57:39.742Z,14
2019-05-09T05:59:44.148Z,13.7
2019-05-09T06:00:48.677Z,13.7
2019-05-09T06:02:53.085Z,13.8
2019-05-09T06:04:59.030Z,13.7
2019-05-09T06:07:03.744Z,13.6
2019-05-09T06:08:08.687Z,13.8
2019-05-09T06:10:13.022Z,13.8
2019-05-09T06:12:20.408Z,13.6
2019-05-09T06:13:22.514Z,13.7
2019-05-09T06:14:24.684Z,13.7
2019-05-09T06:15:29.674Z,13.8
2019-05-09T06:17:34.089Z,14
2019-05-09T06:19:41.879Z,14.1
2019-05-09T06:20:49.867Z,13.9
2019-05-09T06:21:53.538Z,13.8
2019-05-09T06:22:57.870Z,13.7
2019-05-09T06:25:04.196Z,14
2019-05-09T06:27:14.321Z,14
2019-05-09T06:29:21.322Z,14
2019-05-09T06:30:23.509Z,13.9
2019-05-09T06:32:30.057Z,14.2
2019-05-09T06:34:35.054Z,14
2019-05-09T06:35:39.051Z,13.7
2019-05-09T06:36:41.237Z,13.7
2019-05-09T06:37:43.445Z,13.7
2019-05-09T06:39:50.581Z,14
2019-05-09T06:41:57.241Z,14
2019-05-09T06:43:01.236Z,14.1
2019-05-09T06:44:21.903Z,14.2
2019-05-09T06:45:24.028Z,14.4
2019-05-09T06:47:31.370Z,14.2
2019-05-09T06:48:33.787Z,14.6
2019-05-09T06:49:38.232Z,14.5
2019-05-09T06:50:40.768Z,14.4
2019-05-09T06:52:45.199Z,14.7
2019-05-09T06:54:52.528Z,14.8
2019-05-09T06:55:54.689Z,14.7
2019-05-09T06:57:00.225Z,14.9
2019-05-09T06:58:02.779Z,14.9
2019-05-09T07:00:09.461Z,14.5
2019-05-09T07:01:11.574Z,14.7
2019-05-09T07:03:18.709Z,14.8
2019-05-09T07:05:23.156Z,15.1
2019-05-09T07:06:28.045Z,15
2019-05-09T07:07:30.497Z,15
2019-05-09T07:08:32.695Z,14.9
2019-05-09T07:10:38.875Z,14.7
2019-05-09T07:12:43.290Z,14.6
2019-05-09T07:13:47.834Z,14.8
2019-05-09T07:15:52.567Z,14.9
2019-05-09T07:16:54.726Z,15.1
2019-05-09T07:17:59.107Z,15
2019-05-09T07:19:01.663Z,15
2019-05-09T07:21:08.727Z,15.1
2019-05-09T07:22:11.272Z,15.4
2019-05-09T07:24:18.755Z,15.1
2019-05-09T07:26:23.162Z,15.5
2019-05-09T07:27:25.344Z,15.5
2019-05-09T07:28:29.375Z,15.4
2019-05-09T07:29:31.567Z,15.5
2019-05-09T07:31:39.272Z,15.5
2019-05-09T07:33:43.919Z,15.5
2019-05-09T07:34:48.504Z,15.7
2019-05-09T07:36:52.950Z,15.6
2019-05-09T07:39:00.174Z,15.6
2019-05-09T07:41:05.232Z,15.8
2019-05-09T07:42:09.202Z,15.7
2019-05-09T07:44:13.667Z,15.9
2019-05-09T07:46:20.779Z,16.4
2019-05-09T07:47:22.954Z,16.1
2019-05-09T07:48:25.126Z,16.1
2019-05-09T07:49:29.481Z,16.2
2019-05-09T07:51:33.937Z,16.3
2019-05-09T07:53:39.542Z,16.2
2019-05-09T07:54:41.773Z,16.4
2019-05-09T07:56:49.458Z,16.6
2019-05-09T07:58:00.426Z,16.6
2019-05-09T07:59:02.617Z,16.7
2019-05-09T08:01:10.037Z,16.1
2019-05-09T08:02:12.573Z,16.5
2019-05-09T08:03:15.154Z,16.4
2019-05-09T08:04:19.781Z,16.7
2019-05-09T08:06:24.246Z,16.6
2019-05-09T08:08:33.025Z,16.8
2019-05-09T08:09:35.197Z,16.8
2019-05-09T08:11:41.781Z,17
2019-05-09T08:13:49.505Z,16.8
2019-05-09T08:15:21.142Z,16.8
2019-05-09T08:16:23.987Z,17
2019-05-09T08:18:31.906Z,17.2
2019-05-09T08:19:34.082Z,17.3
2019-05-09T08:21:43.372Z,17.4
2019-05-09T08:23:03.248Z,17.5
2019-05-09T08:24:08.868Z,17.3
2019-05-09T08:26:13.704Z,17
2019-05-09T08:28:21.370Z,17.3
2019-05-09T08:29:23.815Z,17.4
2019-05-09T08:30:41.023Z,17.3
2019-05-09T08:31:49.778Z,17.4
2019-05-09T08:33:54.845Z,17
2019-05-09T08:36:01.079Z,17.4
2019-05-09T08:37:03.288Z,17.7
2019-05-09T08:39:09.941Z,17.1
2019-05-09T08:41:18.343Z,17.4
2019-05-09T08:43:23.826Z,17.6
2019-05-09T08:44:28.572Z,17.2
2019-05-09T08:46:37.464Z,17.7
2019-05-09T08:48:42.579Z,17.7
2019-05-09T08:49:50.520Z,17.9
2019-05-09T08:52:20.850Z,17.9
2019-05-09T08:53:22.990Z,17.6
2019-05-09T08:54:27.590Z,17.5
2019-05-09T08:56:32.044Z,17.6
2019-05-09T08:57:34.212Z,17.8
2019-05-09T08:58:39.471Z,18.2
2019-05-09T08:59:41.805Z,17.9
2019-05-09T09:02:23.154Z,17.7
2019-05-09T09:03:25.298Z,17.8
2019-05-09T09:04:30.609Z,17.7
2019-05-09T09:06:35.325Z,17.6
2019-05-09T09:08:41.844Z,17.9
2019-05-09T09:09:44.062Z,17.7
2019-05-09T09:11:51.584Z,17.7
2019-05-09T09:13:58.563Z,17.7
2019-05-09T09:16:23.760Z,18
2019-05-09T09:18:32.088Z,18.5
2019-05-09T09:19:34.273Z,18.5
2019-05-09T09:21:41.433Z,18.5
2019-05-09T09:23:51.871Z,18.5
2019-05-09T09:24:54.054Z,18.5
2019-05-09T09:25:59.432Z,18.6
2019-05-09T09:27:01.616Z,18.8
2019-05-09T09:29:08.901Z,18.6
2019-05-09T09:30:30.142Z,18.7
2019-05-09T09:31:32.620Z,18.5
2019-05-09T09:33:39.085Z,18.8
2019-05-09T09:34:41.292Z,18.9
2019-05-09T09:36:48.208Z,19.1
2019-05-09T09:38:58.346Z,19
2019-05-09T09:41:04.037Z,19
2019-05-09T09:42:09.989Z,18.9
2019-05-09T09:44:14.678Z,18.9
2019-05-09T09:46:21.911Z,19.4
2019-05-09T09:47:24.950Z,19.5
2019-05-09T09:48:29.557Z,19.1
2019-05-09T09:49:32.224Z,19.5
2019-05-09T09:51:39.377Z,20.3
2019-05-09T09:53:43.871Z,20.4
2019-05-09T09:54:49.633Z,20.3
2019-05-09T09:55:51.873Z,20
2019-05-09T09:56:54.348Z,19.8
2019-05-09T09:59:01.235Z,20.3
2019-05-09T10:00:03.829Z,19.9
2019-05-09T10:01:08.643Z,19.8
2019-05-09T10:02:11.968Z,19.5
2019-05-09T10:04:25.436Z,19.3
2019-05-09T10:05:28.962Z,19.1
2019-05-09T10:06:31.172Z,19.2
2019-05-09T10:07:33.641Z,19.1
2019-05-09T10:08:40.375Z,19.5
2019-05-09T10:09:42.755Z,19.6
2019-05-09T10:11:49.501Z,19.7
2019-05-09T10:13:54.337Z,19.9
2019-05-09T10:14:58.783Z,19.7
2019-05-09T10:17:05.190Z,19.4
2019-05-09T10:19:11.214Z,19.3
2019-05-09T10:20:13.677Z,19.1
2019-05-09T10:22:28.287Z,19
2019-05-09T10:24:33.015Z,19.5
2019-05-09T10:26:40.088Z,19.7
2019-05-09T10:27:42.292Z,19.5
2019-05-09T10:29:51.862Z,19.1
2019-05-09T10:31:59.184Z,19.2
2019-05-09T10:34:03.960Z,19.6
2019-05-09T10:35:08.956Z,19.3
2019-05-09T10:37:13.498Z,19.6
2019-05-09T10:39:21.514Z,19.2
2019-05-09T10:40:24.443Z,19.2
2019-05-09T10:41:26.648Z,19.4
2019-05-09T10:42:30.503Z,19
2019-05-09T10:43:40.110Z,19
2019-05-09T10:44:42.273Z,18.9
2019-05-09T10:45:44.468Z,19.2
2019-05-09T10:47:03.337Z,19
2019-05-09T10:48:05.511Z,19
2019-05-09T10:49:09.957Z,19.2
2019-05-09T10:50:12.171Z,19.2
2019-05-09T10:52:19.587Z,19.1
2019-05-09T10:54:24.020Z,19.5
2019-05-09T10:55:29.137Z,19.6
2019-05-09T10:57:34.544Z,19.8
2019-05-09T10:59:41.133Z,19.7
2019-05-09T11:01:49.942Z,20
2019-05-09T11:02:52.554Z,20.4
2019-05-09T11:04:59.088Z,20.8
2019-05-09T11:07:04.563Z,21.5
2019-05-09T11:09:11.611Z,21.6
2019-05-09T11:10:33.707Z,21.7
2019-05-09T11:11:36.117Z,22
2019-05-09T11:12:38.275Z,21.7
2019-05-09T11:14:43.011Z,21.6
2019-05-09T11:17:22.441Z,21.4
2019-05-09T11:18:24.595Z,21.4
2019-05-09T11:19:29.662Z,21.1
2019-05-09T11:21:34.092Z,21.3
2019-05-09T11:22:39.541Z,21.5
2019-05-09T11:24:52.825Z,21.4
2019-05-09T11:26:59.929Z,22.2
2019-05-09T11:28:18.670Z,21.9
2019-05-09T11:29:20.797Z,21.5
2019-05-09T11:30:22.994Z,21.3
2019-05-09T11:31:25.176Z,21.7
2019-05-09T11:32:29.440Z,22.1
2019-05-09T11:34:33.902Z,21.8
2019-05-09T11:36:41.403Z,21.5
2019-05-09T11:37:44.166Z,21.9
2019-05-09T11:38:50.244Z,22.5
2019-05-09T11:39:52.715Z,22
2019-05-09T11:42:00.472Z,22
2019-05-09T11:44:08.206Z,21.8
2019-05-09T11:45:10.589Z,21.5
2019-05-09T11:46:13.147Z,21.3
2019-05-09T11:47:47.693Z,21.1
2019-05-09T11:48:50.260Z,20.9
2019-05-09T11:49:52.482Z,21.1
2019-05-09T11:51:59.227Z,21.3
2019-05-09T11:54:04.236Z,21.3
2019-05-09T11:55:44.096Z,20.8
2019-05-09T11:56:48.754Z,21.1
2019-05-09T11:58:53.244Z,21.2
2019-05-09T11:59:58.117Z,21.8
2019-05-09T12:01:05.171Z,22.1
2019-05-09T12:02:09.936Z,22.1
2019-05-09T12:04:15.156Z,22.3
2019-05-09T12:06:22.893Z,21.3
2019-05-09T12:07:25.097Z,21.6
2019-05-09T12:09:30.789Z,21.7
2019-05-09T12:11:38.740Z,21.5
2019-05-09T12:13:44.527Z,21.6
2019-05-09T12:14:49.436Z,21.7
2019-05-09T12:16:53.928Z,21.3
2019-05-09T12:18:12.725Z,20.8
2019-05-09T12:19:17.750Z,20.9
2019-05-09T12:21:22.797Z,20.9
2019-05-09T12:22:28.250Z,21.2
2019-05-09T12:24:32.975Z,21.9
2019-05-09T12:26:40.248Z,21.9
2019-05-09T12:28:47.814Z,21.6
2019-05-09T12:29:50.324Z,21.3
2019-05-09T12:31:55.632Z,21.3
2019-05-09T12:34:03.081Z,21.4
2019-05-09T12:36:10.502Z,21.2
2019-05-09T12:37:12.688Z,21.4
2019-05-09T12:39:20.261Z,21.5
2019-05-09T12:41:25.066Z,21.4
2019-05-09T12:43:32.862Z,21.3
2019-05-09T12:44:35.153Z,21.4
2019-05-09T12:46:42.212Z,22.1
2019-05-09T12:48:49.510Z,22.1
2019-05-09T12:49:51.985Z,22.5
2019-05-09T12:50:54.504Z,22.4
2019-05-09T12:51:59.971Z,22
2019-05-09T12:54:04.815Z,21
2019-05-09T12:55:13.421Z,20.8
2019-05-09T12:56:15.606Z,20.7
2019-05-09T12:57:20.951Z,20.7
2019-05-09T12:59:25.389Z,20.6
2019-05-09T13:01:31.810Z,20.9
2019-05-09T13:03:39.763Z,20.5
2019-05-09T13:04:41.957Z,20.2
2019-05-09T13:06:50.265Z,20.8
2019-05-09T13:08:54.716Z,21
2019-05-09T13:11:03.755Z,20.7
2019-05-09T13:12:08.368Z,20.7
2019-05-09T13:14:13.057Z,21.4
2019-05-09T13:16:21.316Z,21.6
2019-05-09T13:17:23.568Z,22
2019-05-09T13:19:33.981Z,22.6
2019-05-09T13:21:41.010Z,22.6
2019-05-09T13:23:53.132Z,23
2019-05-09T13:24:55.641Z,22.6
2019-05-09T13:27:03.378Z,22.4
2019-05-09T13:29:11.330Z,23.1
2019-05-09T13:31:19.026Z,23.1
2019-05-09T13:32:21.927Z,23.4
2019-05-09T13:34:29.493Z,23.3
2019-05-09T13:36:34.166Z,23.3
2019-05-09T13:39:10.504Z,23.7
2019-05-09T13:41:18.730Z,24
2019-05-09T13:42:21.156Z,23.4
2019-05-09T13:44:28.394Z,24
2019-05-09T13:46:33.121Z,23.4
2019-05-09T13:49:16.663Z,22.7
2019-05-09T13:50:21.569Z,22.1
2019-05-09T13:51:23.796Z,22.3
2019-05-09T13:53:30.993Z,22.3
2019-05-09T13:54:33.173Z,22.1
2019-05-09T13:56:38.146Z,21.4
2019-05-09T13:58:42.585Z,22
2019-05-09T13:59:44.785Z,21.9
2019-05-09T14:01:03.625Z,21.4
2019-05-09T14:02:06.072Z,21.3
2019-05-09T14:04:12.261Z,21
2019-05-09T14:06:17.836Z,21
2019-05-09T14:07:20.571Z,21.3
2019-05-09T14:08:23.178Z,21.5
2019-05-09T14:09:28.683Z,21.4
2019-05-09T14:11:34.300Z,21.3
2019-05-09T14:13:41.840Z,21.9
2019-05-09T14:14:44.336Z,22.1
2019-05-09T14:15:49.777Z,22.1
2019-05-09T14:16:51.962Z,22.1
2019-05-09T14:19:51.700Z,22.4
2019-05-09T14:20:54.233Z,22.4
2019-05-09T14:22:00.565Z,22.3
2019-05-09T14:24:20.535Z,22.6
2019-05-09T14:26:28.251Z,23.1
2019-05-09T14:28:32.924Z,23.5
2019-05-09T14:29:35.131Z,23.4
2019-05-09T14:31:42.974Z,23.3
2019-05-09T14:33:49.063Z,24.2
2019-05-09T14:35:53.552Z,23.3
2019-05-09T14:36:58.775Z,23.3
2019-05-09T14:39:03.559Z,23.7
2019-05-09T14:41:13.507Z,24.4
2019-05-09T14:43:19.700Z,23.6
2019-05-09T14:44:21.857Z,23.1
2019-05-09T14:46:28.835Z,22.5
2019-05-09T14:48:33.506Z,23.3
2019-05-09T14:49:51.484Z,23.2
2019-05-09T14:50:53.991Z,23
2019-05-09T14:51:58.784Z,22.7
2019-05-09T14:54:03.516Z,22
2019-05-09T14:56:11.461Z,22.4
2019-05-09T14:57:13.657Z,21.9
2019-05-09T14:58:19.165Z,21.9
2019-05-09T14:59:21.585Z,22.1
2019-05-09T15:01:29.990Z,21.9
2019-05-09T15:03:35.108Z,21.9
2019-05-09T15:04:39.784Z,21.8
2019-05-09T15:05:41.992Z,21.9
2019-05-09T15:06:44.465Z,21.6
2019-05-09T15:08:51.012Z,21.9
2019-05-09T15:10:00.647Z,21.6
2019-05-09T15:11:02.863Z,21.3
2019-05-09T15:12:05.052Z,21.5
2019-05-09T15:13:09.982Z,21.6
2019-05-09T15:14:12.164Z,21.5
2019-05-09T15:16:19.807Z,21.4
2019-05-09T15:18:24.911Z,21.6
2019-05-09T15:19:30.072Z,21.5
2019-05-09T15:21:34.524Z,21.5
2019-05-09T15:23:42.706Z,21.1
2019-05-09T15:25:49.228Z,20.5
2019-05-09T15:26:51.636Z,20.5
2019-05-09T15:28:59.346Z,20.7
2019-05-09T15:31:04.148Z,20.2
2019-05-09T15:32:13.243Z,20.2
2019-05-09T15:33:18.038Z,20.3
2019-05-09T15:34:20.503Z,20.1
2019-05-09T15:36:25.357Z,20.2
2019-05-09T15:38:32.652Z,19.7
2019-05-09T15:40:40.326Z,19.6
2019-05-09T15:41:42.495Z,19.7
2019-05-09T15:43:50.030Z,19.7
2019-05-09T15:45:54.458Z,20.1
2019-05-09T15:46:56.636Z,20.1
2019-05-09T15:49:01.783Z,20.1
2019-05-09T15:50:24.207Z,20.2
2019-05-09T15:51:32.553Z,20.1
2019-05-09T15:53:39.524Z,20.1
2019-05-09T15:55:44.243Z,20.2
2019-05-09T15:56:49.712Z,20.3
2019-05-09T15:58:54.145Z,20.1
2019-05-09T16:01:02.300Z,20.1
2019-05-09T16:02:04.775Z,20.2
2019-05-09T16:03:07.561Z,20
2019-05-09T16:04:10.028Z,19.7
2019-05-09T16:06:14.926Z,19.5
2019-05-09T16:08:21.273Z,19.6
2019-05-09T16:09:23.809Z,19.6
2019-05-09T16:11:31.497Z,19.7
2019-05-09T16:13:38.368Z,19.9
2019-05-09T16:14:40.589Z,19.8
2019-05-09T16:15:43.211Z,19.8
2019-05-09T16:16:48.309Z,19.8
2019-05-09T16:18:52.750Z,19.9
2019-05-09T16:21:00.185Z,19.6
2019-05-09T16:22:03.804Z,19.5
2019-05-09T16:24:12.623Z,19.6
2019-05-09T16:26:19.530Z,19.6
2019-05-09T16:28:23.944Z,20.1
2019-05-09T16:29:32.813Z,20.1
2019-05-09T16:31:40.449Z,20
2019-05-09T16:33:48.088Z,20
2019-05-09T16:35:54.421Z,20.1
2019-05-09T16:36:59.475Z,20.1
2019-05-09T16:38:11.773Z,20.1
2019-05-09T16:39:14.252Z,20.1
2019-05-09T16:41:19.683Z,20
2019-05-09T16:43:24.394Z,19.8
2019-05-09T16:44:27.015Z,19.9
2019-05-09T16:45:29.930Z,20.1
2019-05-09T16:46:32.140Z,19.8
2019-05-09T16:48:37.121Z,19.7
2019-05-09T16:51:07.699Z,19.5
2019-05-09T16:53:12.504Z,19.6
2019-05-09T16:54:14.705Z,19.2
2019-05-09T16:56:21.388Z,19.5
2019-05-09T16:58:28.299Z,19.5
2019-05-09T17:00:33.349Z,19.2
2019-05-09T17:01:38.733Z,19.4
2019-05-09T17:03:44.359Z,19.3
2019-05-09T17:05:49.084Z,18.9
2019-05-09T17:06:51.591Z,19.1
2019-05-09T17:07:54.030Z,19.1
2019-05-09T17:08:59.322Z,19.1
2019-05-09T17:11:04.084Z,19
2019-05-09T17:13:11.672Z,19.2
2019-05-09T17:14:13.860Z,19
2019-05-09T17:15:18.391Z,18.9
2019-05-09T17:16:20.594Z,18.7
2019-05-09T17:18:28.740Z,18.5
2019-05-09T17:20:33.193Z,18.3
2019-05-09T17:21:38.314Z,18.3
2019-05-09T17:23:42.739Z,18.2
2019-05-09T17:25:49.161Z,18
2019-05-09T17:28:00.345Z,18
2019-05-09T17:29:02.527Z,17.9
2019-05-09T17:31:09.784Z,17.8
2019-05-09T17:33:14.878Z,17.7
2019-05-09T17:35:21.438Z,17.6
2019-05-09T17:36:23.640Z,17.5
2019-05-09T17:38:29.014Z,17.3
2019-05-09T17:40:33.460Z,17.4
2019-05-09T17:41:38.196Z,17.4
2019-05-09T17:42:40.387Z,17.3
2019-05-09T17:43:42.572Z,17.4
2019-05-09T17:45:49.060Z,17.3
2019-05-09T17:47:53.501Z,17.4
2019-05-09T17:48:58.044Z,17.3
2019-05-09T17:51:03.586Z,17.2
2019-05-09T17:53:10.467Z,17
2019-05-09T17:55:15.197Z,16.8
2019-05-09T17:56:17.378Z,16.8
2019-05-09T17:58:34.413Z,16.8
2019-05-09T18:00:41.964Z,16.8
2019-05-09T18:02:49.108Z,16.9
2019-05-09T18:03:51.319Z,17
2019-05-09T18:05:58.980Z,17
2019-05-09T18:08:04.106Z,16.9
2019-05-09T18:10:11.756Z,16.7
2019-05-09T18:11:14.201Z,16.9
2019-05-09T18:13:32.619Z,17
2019-05-09T18:14:38.474Z,17.1
2019-05-09T18:15:40.692Z,17.1
2019-05-09T18:17:48.375Z,16.5
2019-05-09T18:18:50.572Z,16.4
2019-05-09T18:19:52.734Z,16.5
2019-05-09T18:20:54.928Z,16.5
2019-05-09T18:23:04.428Z,16.7
2019-05-09T18:25:11.834Z,16.7
2019-05-09T18:26:14.015Z,16.7
2019-05-09T18:27:18.774Z,16.6
2019-05-09T18:28:20.974Z,16.6
2019-05-09T18:30:28.166Z,16.3
2019-05-09T18:32:32.831Z,16.4
2019-05-09T18:33:34.996Z,16.5
2019-05-09T18:35:41.367Z,16.6
2019-05-09T18:37:48.725Z,16.5
2019-05-09T18:39:53.238Z,16.3
2019-05-09T18:40:58.444Z,16.4
2019-05-09T18:43:02.823Z,16.3
2019-05-09T18:45:09.106Z,16.2
2019-05-09T18:46:11.295Z,16.1
2019-05-09T18:47:13.772Z,16.1
2019-05-09T18:48:15.935Z,16.1
2019-05-09T18:50:20.732Z,16.2
2019-05-09T18:52:25.559Z,15.9
2019-05-09T18:53:27.735Z,15.9
2019-05-09T18:55:32.175Z,15.7
2019-05-09T18:57:37.222Z,15.8
2019-05-09T18:59:41.834Z,15.7
2019-05-09T19:00:44.034Z,15.5
2019-05-09T19:02:49.359Z,15.7
2019-05-09T19:04:54.366Z,15.7
2019-05-09T19:05:56.977Z,15.5
2019-05-09T19:06:59.152Z,15.5
2019-05-09T19:08:01.358Z,15.3
2019-05-09T19:10:06.450Z,15.4
2019-05-09T19:12:11.330Z,15
2019-05-09T19:13:13.818Z,15.1
2019-05-09T19:15:18.289Z,15.2
2019-05-09T19:17:22.995Z,15.1
2019-05-09T19:18:25.176Z,15.1
2019-05-09T19:20:30.013Z,15.1
2019-05-09T19:22:34.379Z,15.1
2019-05-09T19:23:36.556Z,15.1
2019-05-09T19:25:40.941Z,15.1
2019-05-09T19:27:45.361Z,14.9
2019-05-09T19:28:47.491Z,15
2019-05-09T19:30:52.287Z,14.9
2019-05-09T19:32:57.123Z,14.8
2019-05-09T19:33:59.294Z,14.9
2019-05-09T19:35:01.961Z,14.9
2019-05-09T19:36:05.407Z,14.9
2019-05-09T19:38:09.820Z,14.7
2019-05-09T19:40:21.008Z,14.4
2019-05-09T19:41:23.192Z,14.4
2019-05-09T19:42:25.389Z,14.4
2019-05-09T19:43:27.555Z,14.5
2019-05-09T19:45:32.046Z,14.4
2019-05-09T19:47:36.470Z,14.5
2019-05-09T19:48:38.739Z,14.5
2019-05-09T19:50:43.787Z,14.5
2019-05-09T19:52:48.608Z,14.4
2019-05-09T19:54:53.507Z,14.2
2019-05-09T19:55:55.738Z,14.3
2019-05-09T19:58:00.973Z,14.4
2019-05-09T20:00:05.417Z,14.4
2019-05-09T20:01:07.614Z,14.2
2019-05-09T20:02:10.795Z,13.9
2019-05-09T20:03:12.992Z,13.8
2019-05-09T20:05:17.445Z,13.8
2019-05-09T20:07:21.857Z,13.8
2019-05-09T20:08:25.830Z,13.9
2019-05-09T20:10:30.300Z,14
2019-05-09T20:12:36.913Z,14.1
2019-05-09T20:13:39.134Z,14
2019-05-09T20:15:43.989Z,14
2019-05-09T20:17:48.750Z,14
2019-05-09T20:18:51.514Z,14
2019-05-09T20:20:55.968Z,14
2019-05-09T20:23:00.471Z,14
2019-05-09T20:24:02.676Z,14.1
2019-05-09T20:25:04.827Z,14
2019-05-09T20:26:07.027Z,13.9
2019-05-09T20:28:11.934Z,13.6
2019-05-09T20:30:16.628Z,13.5
2019-05-09T20:31:18.881Z,13.5
2019-05-09T20:33:24.213Z,13.4
2019-05-09T20:35:29.157Z,13.7
2019-05-09T20:37:34.047Z,13.6
2019-05-09T20:38:36.499Z,13.8
2019-05-09T20:40:41.275Z,13.8
2019-05-09T20:42:46.322Z,13.3
2019-05-09T20:43:48.517Z,13.4
2019-05-09T20:44:50.716Z,13.2
2019-05-09T20:45:53.179Z,13.1
2019-05-09T20:47:57.647Z,13
2019-05-09T20:50:02.741Z,13
2019-05-09T20:51:04.909Z,12.7
2019-05-09T20:53:11.204Z,12.5
2019-05-09T20:54:23.219Z,12.4
2019-05-09T20:55:25.390Z,12.4
2019-05-09T20:57:30.253Z,12.4
2019-05-09T20:58:32.434Z,12.4
2019-05-09T21:00:38.077Z,12.9
2019-05-09T21:02:43.119Z,12.9
2019-05-09T21:04:01.801Z,13
2019-05-09T21:05:04.238Z,13.1
2019-05-09T21:06:06.418Z,13.1
2019-05-09T21:07:08.628Z,13.1
2019-05-09T21:08:11.397Z,13
2019-05-09T21:10:16.139Z,13
2019-05-09T21:12:20.551Z,13
2019-05-09T21:13:22.714Z,12.9
2019-05-09T21:15:27.386Z,12.9
2019-05-09T21:17:32.086Z,13
2019-05-09T21:18:35.057Z,12.9
2019-05-09T21:19:37.639Z,13
2019-05-09T21:20:39.851Z,12.9
2019-05-09T21:22:45.805Z,13
2019-05-09T21:24:50.238Z,13
2019-05-09T21:25:52.696Z,13.2
2019-05-09T21:26:54.825Z,13.1
2019-05-09T21:27:57.000Z,13.1
2019-05-09T21:30:02.469Z,13.1
2019-05-09T21:32:07.550Z,12.9
2019-05-09T21:33:10.102Z,12.9
2019-05-09T21:35:14.852Z,13
2019-05-09T21:36:28.675Z,12.7
2019-05-09T21:37:33.672Z,12.6
2019-05-09T21:38:35.898Z,12.7
2019-05-09T21:40:40.613Z,12.8
2019-05-09T21:42:45.065Z,12.7
2019-05-09T21:43:47.547Z,12.8
2019-05-09T21:44:49.727Z,12.9